Time;durP1;ratioP1;P1;durP2;ratioP2;P2;SDS_P1;SDS_P2;PMS_P1;PMS_P2;Temp;Humidity;BMP_temperature;BMP_pressure;BME280_temperature;BME280_humidity;BME280_pressure;Samples;Min_cycle;Max_cycle;Signal;HPM_P1;HPM_P2
2023/10/31 00:01:55;;;;;;;22.40;20.30;;;;;;;;;;5158141;27;20466;-85
2023/10/31 00:04:22;;;;;;;22.77;20.55;;;;;;;;;;5158259;27;20046;-84
2023/10/31 00:06:48;;;;;;;26.23;23.63;;;;;;;;;;5141340;27;20078;-84
2023/10/31 00:09:14;;;;;;;26.92;23.88;;;;;;;;;;5158475;27;20080;-83
2023/10/31 00:11:43;;;;;;;28.80;25.08;;;;;;;;;;5157925;27;20046;-82
2023/10/31 00:14:09;;;;;;;27.05;24.38;;;;;;;;;;5157662;27;20046;-82
2023/10/31 00:16:35;;;;;;;25.55;23.00;;;;;;;;;;5140892;27;20050;-83
2023/10/31 00:19:01;;;;;;;25.10;22.45;;;;;;;;;;5176425;27;20046;-82
2023/10/31 00:21:27;;;;;;;59.92;32.72;;;;;;;;;;5158379;27;20390;-82
2023/10/31 00:23:53;;;;;;;25.50;23.00;;;;;;;;;;5158032;27;20111;-81
2023/10/31 00:26:19;;;;;;;28.90;25.83;;;;;;;;;;5176384;27;20042;-82
2023/10/31 00:28:45;;;;;;;26.40;23.60;;;;;;;;;;5176783;27;20429;-82
2023/10/31 00:31:11;;;;;;;44.45;29.88;;;;;;;;;;5140698;27;20042;-82
2023/10/31 00:33:38;;;;;;;28.73;24.08;;;;;;;;;;5158805;27;20046;-82
2023/10/31 00:36:04;;;;;;;26.33;23.52;;;;;;;;;;5157714;27;20046;-81
2023/10/31 00:38:30;;;;;;;25.02;22.50;;;;;;;;;;5140390;27;20042;-80
2023/10/31 00:40:56;;;;;;;27.52;24.73;;;;;;;;;;5158301;27;20108;-81
2023/10/31 00:43:22;;;;;;;25.92;23.30;;;;;;;;;;5158719;27;20094;-81
2023/10/31 00:45:48;;;;;;;24.83;22.40;;;;;;;;;;5157803;27;20053;-80
2023/10/31 00:48:14;;;;;;;35.50;25.08;;;;;;;;;;5157766;27;20054;-81
2023/10/31 00:50:40;;;;;;;26.23;23.70;;;;;;;;;;5158655;27;20050;-81
2023/10/31 00:53:08;;;;;;;25.88;23.23;;;;;;;;;;5123344;27;20053;-81
2023/10/31 00:55:34;;;;;;;28.17;25.17;;;;;;;;;;5175865;27;20129;-79
2023/10/31 00:58:00;;;;;;;28.98;26.00;;;;;;;;;;5157568;27;20133;-79
2023/10/31 01:00:26;;;;;;;28.88;25.77;;;;;;;;;;5153755;27;20055;-79
2023/10/31 01:02:52;;;;;;;27.60;24.98;;;;;;;;;;5155937;27;20387;-79
2023/10/31 01:05:18;;;;;;;27.73;24.45;;;;;;;;;;5154550;27;20134;-80
2023/10/31 01:07:44;;;;;;;29.33;26.27;;;;;;;;;;5154183;27;20393;-80
2023/10/31 01:10:10;;;;;;;26.10;23.55;;;;;;;;;;5155075;27;20529;-80
2023/10/31 01:12:37;;;;;;;27.88;25.00;;;;;;;;;;5154670;27;20047;-81
2023/10/31 01:15:03;;;;;;;33.00;27.70;;;;;;;;;;5138707;27;20047;-82
2023/10/31 01:17:30;;;;;;;31.45;27.80;;;;;;;;;;5158035;27;20090;-81
2023/10/31 01:19:56;;;;;;;29.73;25.73;;;;;;;;;;5157686;27;20466;-80
2023/10/31 01:22:22;;;;;;;27.17;24.35;;;;;;;;;;5158890;27;20047;-80
2023/10/31 01:24:48;;;;;;;38.45;28.90;;;;;;;;;;5158813;27;20047;-80
2023/10/31 01:27:14;;;;;;;32.08;27.73;;;;;;;;;;5157850;27;20058;-80
2023/10/31 01:29:40;;;;;;;32.03;26.58;;;;;;;;;;5157512;27;20063;-81
2023/10/31 01:32:06;;;;;;;34.92;27.52;;;;;;;;;;5158380;27;20482;-81
2023/10/31 01:34:32;;;;;;;72.13;36.00;;;;;;;;;;5159539;27;20078;-81
2023/10/31 01:36:59;;;;;;;36.20;26.45;;;;;;;;;;5158624;27;20045;-81
2023/10/31 01:39:25;;;;;;;37.53;26.90;;;;;;;;;;5158252;27;20039;-81
2023/10/31 01:41:52;;;;;;;13.55;9.27;;;;;;;;;;5157357;27;20058;-81
2023/10/31 01:44:18;;;;;;;2.03;1.05;;;;;;;;;;5139911;27;20100;-80
2023/10/31 01:46:45;;;;;;;0.73;0.20;;;;;;;;;;5158095;27;20402;-81
2023/10/31 01:49:11;;;;;;;0.52;0.20;;;;;;;;;;5157440;27;20557;-82
2023/10/31 01:51:37;;;;;;;1.45;0.10;;;;;;;;;;5157665;27;20130;-82
2023/10/31 01:54:04;;;;;;;0.10;0.10;;;;;;;;;;5140354;27;20150;-83
2023/10/31 01:56:30;;;;;;;1.00;0.20;;;;;;;;;;5140935;27;20049;-83
2023/10/31 01:58:56;;;;;;;1.65;0.20;;;;;;;;;;5156869;27;20042;-84
2023/10/31 02:01:22;;;;;;;0.25;0.20;;;;;;;;;;5157133;27;20077;-86
2023/10/31 02:03:49;;;;;;;1.25;0.10;;;;;;;;;;5157136;27;20082;-85
2023/10/31 02:06:15;;;;;;;0.95;0.10;;;;;;;;;;5157770;27;20046;-85
2023/10/31 02:08:41;;;;;;;0.10;0.00;;;;;;;;;;5139862;27;20083;-85
2023/10/31 02:11:09;;;;;;;0.15;0.00;;;;;;;;;;5158061;27;20042;-85
2023/10/31 02:13:37;;;;;;;0.17;0.00;;;;;;;;;;5156889;27;20087;-85
2023/10/31 02:16:03;;;;;;;1.50;0.10;;;;;;;;;;5157236;27;20074;-85
2023/10/31 02:18:29;;;;;;;0.15;0.00;;;;;;;;;;5139862;27;20391;-85
2023/10/31 02:20:56;;;;;;;0.43;0.03;;;;;;;;;;5157078;27;20046;-84
2023/10/31 02:23:22;;;;;;;0.35;0.10;;;;;;;;;;5156669;27;20463;-83
2023/10/31 02:25:48;;;;;;;1.90;0.10;;;;;;;;;;5156342;27;20039;-83
2023/10/31 02:28:14;;;;;;;2.30;0.10;;;;;;;;;;5139329;27;20055;-84
2023/10/31 02:30:41;;;;;;;0.73;0.10;;;;;;;;;;5139347;27;20501;-84
2023/10/31 02:33:07;;;;;;;1.10;0.20;;;;;;;;;;5158370;27;20046;-85
2023/10/31 02:35:36;;;;;;;1.25;0.40;;;;;;;;;;5156370;27;20093;-84
2023/10/31 02:38:02;;;;;;;2.25;0.20;;;;;;;;;;5156747;27;20448;-84
2023/10/31 02:40:28;;;;;;;2.72;0.20;;;;;;;;;;5157341;27;20368;-84
2023/10/31 02:42:54;;;;;;;0.75;0.10;;;;;;;;;;5139146;27;20047;-85
2023/10/31 02:45:21;;;;;;;0.90;0.10;;;;;;;;;;5140014;27;20047;-84
2023/10/31 02:47:47;;;;;;;1.65;0.20;;;;;;;;;;5156567;27;20046;-84
2023/10/31 02:50:13;;;;;;;2.65;0.20;;;;;;;;;;5139951;27;20055;-84
2023/10/31 02:52:39;;;;;;;1.88;0.20;;;;;;;;;;5157176;27;20043;-84
2023/10/31 02:55:05;;;;;;;2.67;0.20;;;;;;;;;;5157913;27;20050;-84
2023/10/31 02:57:31;;;;;;;1.98;0.20;;;;;;;;;;5156935;27;20137;-84
2023/10/31 02:59:57;;;;;;;2.83;0.20;;;;;;;;;;5164736;27;20474;-83
2023/10/31 03:02:23;;;;;;;1.95;0.20;;;;;;;;;;5159366;27;20473;-83
2023/10/31 03:04:49;;;;;;;2.70;0.20;;;;;;;;;;5159429;27;20095;-82
2023/10/31 03:07:15;;;;;;;4.15;0.30;;;;;;;;;;5142060;27;20464;-82
2023/10/31 03:09:42;;;;;;;2.33;0.25;;;;;;;;;;5159165;27;20125;-82
2023/10/31 03:12:08;;;;;;;1.30;0.28;;;;;;;;;;5177595;27;20443;-82
2023/10/31 03:14:34;;;;;;;3.55;0.40;;;;;;;;;;5159193;27;20038;-82
2023/10/31 03:17:00;;;;;;;3.00;0.90;;;;;;;;;;5158875;27;20043;-83
2023/10/31 03:19:26;;;;;;;3.30;1.00;;;;;;;;;;5177432;27;20081;-84
2023/10/31 03:21:52;;;;;;;4.38;1.35;;;;;;;;;;5159503;27;20054;-84
2023/10/31 03:24:18;;;;;;;4.97;1.70;;;;;;;;;;5141888;27;20049;-84
2023/10/31 03:26:44;;;;;;;3.83;1.15;;;;;;;;;;5159697;27;20390;-84
2023/10/31 03:29:10;;;;;;;3.05;1.00;;;;;;;;;;5176950;27;20535;-84
2023/10/31 03:31:36;;;;;;;3.47;1.10;;;;;;;;;;5158783;27;20090;-84
2023/10/31 03:34:02;;;;;;;2.60;0.70;;;;;;;;;;5177208;27;20042;-84
2023/10/31 03:36:28;;;;;;;5.32;0.88;;;;;;;;;;5158552;27;20050;-85
2023/10/31 03:38:55;;;;;;;4.00;0.98;;;;;;;;;;5140958;27;20038;-84
2023/10/31 03:41:21;;;;;;;5.53;1.25;;;;;;;;;;5158720;27;20050;-85
2023/10/31 03:43:47;;;;;;;3.60;0.68;;;;;;;;;;5176984;27;20038;-83
2023/10/31 03:46:13;;;;;;;4.43;0.70;;;;;;;;;;5158531;27;20042;-83
2023/10/31 03:48:39;;;;;;;6.65;0.60;;;;;;;;;;5176777;27;20492;-81
2023/10/31 03:51:05;;;;;;;4.70;0.70;;;;;;;;;;5159282;27;20038;-81
2023/10/31 03:53:31;;;;;;;5.10;0.73;;;;;;;;;;5157994;27;20078;-81
2023/10/31 03:56:00;;;;;;;3.53;0.70;;;;;;;;;;5176704;27;20053;-81
2023/10/31 03:58:26;;;;;;;2.80;0.68;;;;;;;;;;5158006;27;20038;-81
2023/10/31 04:00:52;;;;;;;5.80;1.20;;;;;;;;;;5157831;27;20057;-81
2023/10/31 04:03:18;;;;;;;5.25;0.70;;;;;;;;;;5158659;27;20046;-80
2023/10/31 04:05:44;;;;;;;5.20;0.80;;;;;;;;;;5158290;27;20102;-81
2023/10/31 04:08:10;;;;;;;3.67;0.95;;;;;;;;;;5176627;27;20044;-82
2023/10/31 04:10:36;;;;;;;4.10;0.60;;;;;;;;;;5158575;27;20409;-82
2023/10/31 04:13:02;;;;;;;2.40;0.50;;;;;;;;;;5157907;27;20439;-83
2023/10/31 04:15:28;;;;;;;1.10;0.40;;;;;;;;;;5157653;27;20046;-83
2023/10/31 04:17:54;;;;;;;1.27;0.40;;;;;;;;;;5176217;27;20120;-84
2023/10/31 04:20:20;;;;;;;3.28;0.40;;;;;;;;;;5157586;27;20038;-84
2023/10/31 04:22:47;;;;;;;2.85;0.50;;;;;;;;;;5157925;27;20064;-83
2023/10/31 04:25:13;;;;;;;2.30;0.75;;;;;;;;;;5157425;27;20038;-82
2023/10/31 04:27:39;;;;;;;3.42;0.57;;;;;;;;;;5157721;27;20038;-83
2023/10/31 04:30:05;;;;;;;3.13;0.45;;;;;;;;;;5157812;27;20035;-82
2023/10/31 04:32:31;;;;;;;1.88;0.40;;;;;;;;;;5157647;27;20050;-83
2023/10/31 04:34:57;;;;;;;2.65;0.50;;;;;;;;;;5157892;27;20471;-81
2023/10/31 04:37:24;;;;;;;3.38;0.50;;;;;;;;;;5157743;27;20053;-81
2023/10/31 04:39:50;;;;;;;5.53;0.70;;;;;;;;;;5176109;27;20035;-80
2023/10/31 04:42:16;;;;;;;2.17;0.50;;;;;;;;;;5176127;27;20052;-79
2023/10/31 04:44:42;;;;;;;2.33;0.60;;;;;;;;;;5140212;27;20089;-80
2023/10/31 04:47:08;;;;;;;6.10;0.45;;;;;;;;;;5175847;27;20478;-80
2023/10/31 04:49:36;;;;;;;4.22;0.40;;;;;;;;;;5159035;27;20050;-79
2023/10/31 04:52:02;;;;;;;2.85;0.70;;;;;;;;;;5180391;27;20166;-80
2023/10/31 04:54:28;;;;;;;4.22;0.40;;;;;;;;;;5180229;27;20042;-80
2023/10/31 04:56:54;;;;;;;3.15;0.50;;;;;;;;;;5162164;27;20358;-80
2023/10/31 04:59:20;;;;;;;3.38;0.43;;;;;;;;;;5180671;27;20042;-80
2023/10/31 05:01:50;;;;;;;4.43;0.90;;;;;;;;;;5161406;27;20050;-81
2023/10/31 05:04:17;;;;;;;4.88;0.60;;;;;;;;;;5161843;27;20435;-81
2023/10/31 05:06:44;;;;;;;2.88;0.52;;;;;;;;;;5161601;27;20072;-81
2023/10/31 05:09:10;;;;;;;4.10;0.90;;;;;;;;;;5162490;27;20054;-81
2023/10/31 05:11:36;;;;;;;3.20;0.90;;;;;;;;;;5180076;27;20050;-82
2023/10/31 05:14:02;;;;;;;6.68;1.13;;;;;;;;;;5179985;27;20038;-82
2023/10/31 05:16:28;;;;;;;5.57;1.30;;;;;;;;;;5161304;27;20056;-82
2023/10/31 05:18:55;;;;;;;4.68;1.40;;;;;;;;;;5161350;27;20477;-83
2023/10/31 05:21:21;;;;;;;5.53;1.42;;;;;;;;;;5161180;27;20056;-83
2023/10/31 05:23:47;;;;;;;5.30;1.05;;;;;;;;;;5161152;27;20046;-84
2023/10/31 05:26:13;;;;;;;6.45;1.38;;;;;;;;;;5179774;27;20046;-85
2023/10/31 05:28:39;;;;;;;3.35;1.20;;;;;;;;;;5162070;27;20057;-84
2023/10/31 05:31:05;;;;;;;5.72;1.60;;;;;;;;;;5161339;27;20038;-84
2023/10/31 05:33:31;;;;;;;4.85;1.42;;;;;;;;;;5161144;27;20078;-85
2023/10/31 05:35:57;;;;;;;4.75;1.52;;;;;;;;;;5161002;27;20442;-85
2023/10/31 05:38:23;;;;;;;6.32;1.50;;;;;;;;;;5161037;27;20564;-85
2023/10/31 05:40:49;;;;;;;5.30;1.17;;;;;;;;;;5143844;27;20187;-85
2023/10/31 05:43:15;;;;;;;4.40;1.27;;;;;;;;;;5143747;27;20038;-83
2023/10/31 05:45:41;;;;;;;6.40;1.83;;;;;;;;;;5160827;27;20038;-84
2023/10/31 05:48:07;;;;;;;4.25;1.35;;;;;;;;;;5143975;27;20053;-84
2023/10/31 05:50:34;;;;;;;5.45;1.42;;;;;;;;;;5179265;27;20038;-84
2023/10/31 05:53:00;;;;;;;8.63;1.73;;;;;;;;;;5160975;27;20052;-85
2023/10/31 05:55:26;;;;;;;3.90;1.30;;;;;;;;;;5179479;27;20049;-84
2023/10/31 05:57:52;;;;;;;3.33;1.45;;;;;;;;;;5144505;27;20042;-84
2023/10/31 06:00:18;;;;;;;4.40;1.40;;;;;;;;;;5159963;27;20050;-85
2023/10/31 06:02:44;;;;;;;5.22;2.08;;;;;;;;;;5143398;27;20050;-85
2023/10/31 06:05:10;;;;;;;5.40;1.48;;;;;;;;;;5161213;27;20046;-84
2023/10/31 06:07:36;;;;;;;7.40;2.28;;;;;;;;;;5160752;27;20046;-84
2023/10/31 06:10:02;;;;;;;9.60;3.17;;;;;;;;;;5161009;27;20387;-84
2023/10/31 06:12:28;;;;;;;3.95;2.53;;;;;;;;;;5160712;27;20050;-84
2023/10/31 06:14:55;;;;;;;5.72;3.20;;;;;;;;;;5126493;27;20042;-84
2023/10/31 06:17:21;;;;;;;5.53;2.47;;;;;;;;;;5143164;27;20481;-84
2023/10/31 06:19:47;;;;;;;6.20;3.17;;;;;;;;;;5178692;27;20121;-84
2023/10/31 06:22:14;;;;;;;4.60;2.75;;;;;;;;;;5142907;27;20046;-83
2023/10/31 06:24:40;;;;;;;4.13;2.75;;;;;;;;;;5142981;27;20081;-83
2023/10/31 06:27:07;;;;;;;6.72;3.53;;;;;;;;;;5143281;27;20042;-83
2023/10/31 06:29:33;;;;;;;5.30;3.28;;;;;;;;;;5160959;27;20111;-83
2023/10/31 06:31:59;;;;;;;5.65;3.25;;;;;;;;;;5179032;27;20125;-83
2023/10/31 06:34:25;;;;;;;4.40;3.28;;;;;;;;;;5159839;27;20038;-83
2023/10/31 06:36:52;;;;;;;7.60;3.10;;;;;;;;;;5160802;27;20402;-83
2023/10/31 06:39:18;;;;;;;3.63;2.58;;;;;;;;;;5142472;27;20076;-82
2023/10/31 06:41:44;;;;;;;5.70;2.70;;;;;;;;;;5159976;27;20046;-83
2023/10/31 06:44:10;;;;;;;4.65;1.95;;;;;;;;;;5142610;27;20049;-82
2023/10/31 06:46:36;;;;;;;4.57;1.75;;;;;;;;;;5142598;27;20093;-82
2023/10/31 06:49:02;;;;;;;4.30;1.45;;;;;;;;;;5159539;27;20042;-82
2023/10/31 06:51:28;;;;;;;3.92;1.45;;;;;;;;;;5178037;27;20089;-83
2023/10/31 06:53:54;;;;;;;3.88;1.58;;;;;;;;;;5142415;27;20064;-82
2023/10/31 06:56:20;;;;;;;4.28;1.58;;;;;;;;;;5160435;27;20081;-82
2023/10/31 06:58:46;;;;;;;2.53;1.38;;;;;;;;;;5142087;27;20466;-82
2023/10/31 07:01:14;;;;;;;3.28;1.15;;;;;;;;;;5178055;27;20141;-82
2023/10/31 07:03:40;;;;;;;6.43;1.70;;;;;;;;;;5158824;27;20042;-82
2023/10/31 07:06:06;;;;;;;3.40;1.38;;;;;;;;;;5142142;27;20047;-82
2023/10/31 07:08:33;;;;;;;3.17;1.00;;;;;;;;;;5159354;27;20090;-82
2023/10/31 07:10:59;;;;;;;3.60;1.23;;;;;;;;;;5159295;27;20042;-82
2023/10/31 07:13:25;;;;;;;3.55;1.40;;;;;;;;;;5158362;27;20057;-82
2023/10/31 07:15:51;;;;;;;2.33;1.30;;;;;;;;;;5142354;27;20474;-82
2023/10/31 07:18:17;;;;;;;4.57;1.65;;;;;;;;;;5159160;27;20039;-82
2023/10/31 07:20:43;;;;;;;3.15;1.48;;;;;;;;;;5159998;27;20089;-82
2023/10/31 07:23:09;;;;;;;3.45;1.65;;;;;;;;;;5159074;27;20508;-81
2023/10/31 07:25:35;;;;;;;4.00;1.73;;;;;;;;;;5177374;27;20048;-81
2023/10/31 07:28:01;;;;;;;6.50;1.50;;;;;;;;;;5158930;27;20057;-81
2023/10/31 07:30:27;;;;;;;4.05;1.83;;;;;;;;;;5141369;27;20486;-81
2023/10/31 07:32:54;;;;;;;4.47;1.60;;;;;;;;;;5177254;27;20125;-81
2023/10/31 07:35:20;;;;;;;4.55;2.03;;;;;;;;;;5141520;27;20042;-81
2023/10/31 07:37:46;;;;;;;1.67;1.40;;;;;;;;;;5158755;27;20046;-81
2023/10/31 07:40:12;;;;;;;3.15;1.30;;;;;;;;;;5177032;27;20042;-81
2023/10/31 07:42:38;;;;;;;4.45;1.67;;;;;;;;;;5141531;27;20489;-81
2023/10/31 07:45:05;;;;;;;4.63;1.50;;;;;;;;;;5141389;27;20046;-81
2023/10/31 07:47:31;;;;;;;2.45;1.00;;;;;;;;;;5141747;27;20111;-81
2023/10/31 07:49:57;;;;;;;4.28;1.00;;;;;;;;;;5141163;27;20042;-80
2023/10/31 07:52:23;;;;;;;2.28;0.90;;;;;;;;;;5158552;27;20053;-81
2023/10/31 07:54:49;;;;;;;3.00;0.90;;;;;;;;;;5141161;27;20069;-81
2023/10/31 07:57:15;;;;;;;2.13;1.05;;;;;;;;;;5158453;27;20042;-80
2023/10/31 07:59:41;;;;;;;4.13;1.25;;;;;;;;;;5176387;27;20042;-80
2023/10/31 08:02:07;;;;;;;3.65;0.98;;;;;;;;;;5158710;27;20060;-80
2023/10/31 08:04:33;;;;;;;5.03;0.98;;;;;;;;;;5141933;27;20531;-80
2023/10/31 08:07:00;;;;;;;5.60;0.90;;;;;;;;;;5176658;27;20042;-80
2023/10/31 08:09:26;;;;;;;5.05;0.98;;;;;;;;;;5158236;27;20088;-80
2023/10/31 08:11:52;;;;;;;2.92;0.70;;;;;;;;;;5176658;27;20129;-80
2023/10/31 08:14:18;;;;;;;4.03;0.75;;;;;;;;;;5158605;27;20524;-80
2023/10/31 08:16:45;;;;;;;4.25;0.75;;;;;;;;;;5140923;27;20049;-80
2023/10/31 08:19:12;;;;;;;5.75;0.90;;;;;;;;;;5176402;27;20042;-80
2023/10/31 08:21:38;;;;;;;1.80;0.60;;;;;;;;;;5123973;27;20125;-80
2023/10/31 08:24:05;;;;;;;3.85;0.77;;;;;;;;;;5157711;27;20046;-80
2023/10/31 08:26:34;;;;;;;5.63;1.10;;;;;;;;;;5157676;27;20056;-80
2023/10/31 08:29:00;;;;;;;2.33;0.93;;;;;;;;;;5140434;27;20082;-81
2023/10/31 08:31:26;;;;;;;3.55;0.90;;;;;;;;;;5158094;27;20482;-80
2023/10/31 08:33:53;;;;;;;3.67;0.70;;;;;;;;;;5157707;27;20046;-80
2023/10/31 08:36:19;;;;;;;2.88;0.57;;;;;;;;;;5140478;27;20074;-80
2023/10/31 08:38:45;;;;;;;2.10;0.52;;;;;;;;;;5157942;27;20085;-80
2023/10/31 08:41:11;;;;;;;3.33;0.57;;;;;;;;;;5157924;27;20053;-80
2023/10/31 08:43:37;;;;;;;2.08;0.55;;;;;;;;;;5158439;27;20050;-80
2023/10/31 08:46:03;;;;;;;5.65;0.77;;;;;;;;;;5176235;27;20125;-80
2023/10/31 08:48:29;;;;;;;2.58;0.55;;;;;;;;;;5157775;27;20094;-80
2023/10/31 08:50:55;;;;;;;2.08;0.30;;;;;;;;;;5140306;27;20069;-80
2023/10/31 08:53:22;;;;;;;1.30;0.30;;;;;;;;;;5123172;27;20093;-80
2023/10/31 08:55:48;;;;;;;2.15;0.40;;;;;;;;;;5158067;27;20047;-81
2023/10/31 08:58:15;;;;;;;3.38;0.60;;;;;;;;;;5175920;27;20079;-80
2023/10/31 09:00:41;;;;;;;4.72;0.75;;;;;;;;;;5153699;27;20075;-80
2023/10/31 09:03:07;;;;;;;3.35;0.80;;;;;;;;;;5154105;27;20047;-80
2023/10/31 09:05:34;;;;;;;2.15;0.60;;;;;;;;;;5154007;27;20046;-81
2023/10/31 09:08:00;;;;;;;3.17;0.60;;;;;;;;;;5153915;27;20482;-80
2023/10/31 09:10:26;;;;;;;2.05;0.40;;;;;;;;;;5153546;27;20064;-80
2023/10/31 09:12:52;;;;;;;3.28;0.40;;;;;;;;;;5153648;27;20126;-81
2023/10/31 09:15:21;;;;;;;1.77;0.30;;;;;;;;;;5136521;27;20539;-81
2023/10/31 09:17:47;;;;;;;1.83;0.30;;;;;;;;;;5136745;27;20080;-81
2023/10/31 09:20:14;;;;;;;2.22;0.30;;;;;;;;;;5153745;27;20467;-80
2023/10/31 09:22:40;;;;;;;6.82;0.30;;;;;;;;;;5154011;27;20523;-80
2023/10/31 09:25:06;;;;;;;3.60;0.30;;;;;;;;;;5153963;27;20110;-81
2023/10/31 09:27:32;;;;;;;3.78;0.30;;;;;;;;;;5137556;27;20043;-80
2023/10/31 09:29:58;;;;;;;2.42;0.30;;;;;;;;;;5136357;27;20049;-81
2023/10/31 09:32:24;;;;;;;1.48;0.20;;;;;;;;;;5136850;27;20398;-80
2023/10/31 09:34:51;;;;;;;3.03;0.20;;;;;;;;;;5155505;27;20046;-80
2023/10/31 09:37:17;;;;;;;4.60;0.30;;;;;;;;;;5140514;27;20039;-80
2023/10/31 09:39:43;;;;;;;1.95;0.20;;;;;;;;;;5139926;27;20043;-80
2023/10/31 09:42:09;;;;;;;2.28;0.20;;;;;;;;;;5158501;27;20043;-80
2023/10/31 09:44:35;;;;;;;3.47;0.20;;;;;;;;;;5157766;27;20082;-80
2023/10/31 09:47:01;;;;;;;2.92;0.30;;;;;;;;;;5157462;27;20058;-80
2023/10/31 09:49:28;;;;;;;3.05;0.30;;;;;;;;;;5140100;27;20046;-80
2023/10/31 09:51:54;;;;;;;3.30;0.10;;;;;;;;;;5157639;27;20042;-80
2023/10/31 09:54:20;;;;;;;4.45;0.30;;;;;;;;;;5158055;27;20054;-80
2023/10/31 09:56:46;;;;;;;0.73;0.10;;;;;;;;;;5140212;27;20039;-80
2023/10/31 09:59:15;;;;;;;2.97;0.30;;;;;;;;;;5158196;27;20074;-81
2023/10/31 10:01:42;;;;;;;3.17;0.15;;;;;;;;;;5156588;27;20142;-80
2023/10/31 10:04:11;;;;;;;4.20;0.10;;;;;;;;;;5139917;27;20433;-80
2023/10/31 10:06:40;;;;;;;3.15;0.20;;;;;;;;;;5140799;27;20046;-80
2023/10/31 10:09:08;;;;;;;0.93;0.10;;;;;;;;;;5157404;27;20047;-81
2023/10/31 10:11:34;;;;;;;1.90;0.10;;;;;;;;;;5156819;27;20045;-80
2023/10/31 10:14:00;;;;;;;0.63;0.10;;;;;;;;;;5139653;27;20054;-80
2023/10/31 10:16:33;;;;;;;2.10;0.10;;;;;;;;;;5139378;27;20043;-80
2023/10/31 10:19:16;;;;;;;3.28;0.10;;;;;;;;;;5156727;27;20038;-80
2023/10/31 10:21:56;;;;;;;1.42;0.10;;;;;;;;;;5139568;27;20043;-81
2023/10/31 10:24:22;;;;;;;2.50;0.10;;;;;;;;;;5157726;27;20053;-80
2023/10/31 10:26:49;;;;;;;2.00;0.10;;;;;;;;;;5156786;27;20493;-80
2023/10/31 10:29:15;;;;;;;1.77;0.00;;;;;;;;;;5156735;27;20034;-81
2023/10/31 10:31:42;;;;;;;1.42;0.03;;;;;;;;;;5157785;27;20046;-80
2023/10/31 10:34:09;;;;;;;1.25;0.00;;;;;;;;;;5138867;27;20046;-80
2023/10/31 10:36:35;;;;;;;0.98;0.00;;;;;;;;;;5139368;27;20047;-81
2023/10/31 10:39:03;;;;;;;0.30;0.00;;;;;;;;;;5156339;27;20046;-80
2023/10/31 10:41:30;;;;;;;1.75;0.00;;;;;;;;;;5157315;27;20343;-80
2023/10/31 10:44:04;;;;;;;0.15;0.00;;;;;;;;;;5156473;27;20383;-81
2023/10/31 10:46:32;;;;;;;0.20;0.00;;;;;;;;;;5156679;27;20082;-80
2023/10/31 10:48:59;;;;;;;0.17;0.00;;;;;;;;;;5155924;27;20054;-80
2023/10/31 10:51:29;;;;;;;0.00;0.00;;;;;;;;;;5156094;27;20125;-80
2023/10/31 10:54:01;;;;;;;0.00;0.00;;;;;;;;;;5156784;27;20518;-80
2023/10/31 10:56:38;;;;;;;0.70;0.08;;;;;;;;;;5157150;27;20111;-80
2023/10/31 10:59:09;;;;;;;0.00;0.00;;;;;;;;;;5156727;27;20074;-80
2023/10/31 11:01:35;;;;;;;0.68;0.00;;;;;;;;;;5138310;27;20090;-80
2023/10/31 11:04:02;;;;;;;1.00;0.00;;;;;;;;;;5156062;27;20058;-80
2023/10/31 11:06:29;;;;;;;0.38;0.00;;;;;;;;;;5155889;27;20043;-80
2023/10/31 11:08:56;;;;;;;0.73;0.00;;;;;;;;;;5156904;27;20126;-80
2023/10/31 11:11:23;;;;;;;0.98;0.00;;;;;;;;;;5155855;27;20050;-80
2023/10/31 11:13:51;;;;;;;0.88;0.00;;;;;;;;;;5155607;27;20046;-80
2023/10/31 11:16:19;;;;;;;1.67;0.00;;;;;;;;;;5155821;27;20050;-80
2023/10/31 11:18:46;;;;;;;0.10;0.00;;;;;;;;;;5156655;27;20046;-80
2023/10/31 11:21:12;;;;;;;0.03;0.00;;;;;;;;;;5155397;27;20143;-81
2023/10/31 11:23:39;;;;;;;1.13;0.00;;;;;;;;;;5155460;27;20055;-81
2023/10/31 11:26:08;;;;;;;0.20;0.00;;;;;;;;;;5137855;27;20468;-82
2023/10/31 11:28:34;;;;;;;0.40;0.00;;;;;;;;;;5137433;27;20091;-82
2023/10/31 11:31:02;;;;;;;0.80;0.00;;;;;;;;;;5155307;27;20046;-83
2023/10/31 11:33:28;;;;;;;0.50;0.00;;;;;;;;;;5138229;27;20577;-82
2023/10/31 11:36:04;;;;;;;0.57;0.00;;;;;;;;;;5156177;27;20085;-82
2023/10/31 11:38:37;;;;;;;3.05;0.00;;;;;;;;;;5155178;27;20360;-82
2023/10/31 11:41:04;;;;;;;0.30;0.00;;;;;;;;;;5156157;27;20127;-82
2023/10/31 11:43:37;;;;;;;0.65;0.00;;;;;;;;;;5156201;27;20412;-82
2023/10/31 11:46:03;;;;;;;2.03;0.00;;;;;;;;;;5155142;27;20049;-82
2023/10/31 11:48:45;;;;;;;2.28;0.00;;;;;;;;;;5156115;27;20045;-83
2023/10/31 11:51:13;;;;;;;2.38;0.10;;;;;;;;;;5155635;27;20089;-84
2023/10/31 11:53:39;;;;;;;1.88;0.00;;;;;;;;;;5155112;27;20046;-84
2023/10/31 11:56:06;;;;;;;1.38;0.08;;;;;;;;;;5155033;27;20425;-84
2023/10/31 11:58:32;;;;;;;1.02;0.10;;;;;;;;;;5137302;27;20046;-84
2023/10/31 12:01:03;;;;;;;3.83;0.20;;;;;;;;;;5154875;27;20051;-84
2023/10/31 12:03:37;;;;;;;1.40;0.00;;;;;;;;;;5154969;27;20103;-83
2023/10/31 12:06:03;;;;;;;1.57;0.10;;;;;;;;;;5156247;27;20121;-83
2023/10/31 12:08:38;;;;;;;2.72;0.10;;;;;;;;;;5154695;27;20129;-83
2023/10/31 12:11:05;;;;;;;0.90;0.00;;;;;;;;;;5138480;27;20049;-83
2023/10/31 12:13:31;;;;;;;1.13;0.08;;;;;;;;;;5154758;27;20047;-83
2023/10/31 12:15:58;;;;;;;1.77;0.10;;;;;;;;;;5156609;27;20083;-82
2023/10/31 12:18:24;;;;;;;1.23;0.00;;;;;;;;;;5154755;27;20129;-82
2023/10/31 12:20:51;;;;;;;0.93;0.00;;;;;;;;;;5155243;27;20050;-82
2023/10/31 12:23:20;;;;;;;0.30;0.00;;;;;;;;;;5155510;27;20051;-82
2023/10/31 12:25:50;;;;;;;0.50;0.05;;;;;;;;;;5155473;27;20042;-82
2023/10/31 12:28:17;;;;;;;0.60;0.00;;;;;;;;;;5155235;27;20039;-82
2023/10/31 12:30:47;;;;;;;0.70;0.00;;;;;;;;;;5154511;27;20046;-82
2023/10/31 12:33:14;;;;;;;0.20;0.00;;;;;;;;;;5155565;27;20055;-82
2023/10/31 12:35:40;;;;;;;0.73;0.10;;;;;;;;;;5137249;27;20142;-81
2023/10/31 12:38:06;;;;;;;1.40;0.10;;;;;;;;;;5137869;27;20054;-82
2023/10/31 12:40:33;;;;;;;1.58;0.00;;;;;;;;;;5155371;27;20039;-81
2023/10/31 12:43:01;;;;;;;1.88;0.10;;;;;;;;;;5154797;27;20054;-82
2023/10/31 12:45:27;;;;;;;1.75;0.00;;;;;;;;;;5155223;27;20047;-82
2023/10/31 12:48:04;;;;;;;1.23;0.10;;;;;;;;;;5155358;27;20057;-82
2023/10/31 12:50:31;;;;;;;2.40;0.10;;;;;;;;;;5154071;27;20395;-82
2023/10/31 12:52:59;;;;;;;1.38;0.00;;;;;;;;;;5155193;27;20049;-81
2023/10/31 12:55:28;;;;;;;0.43;0.05;;;;;;;;;;5154684;27;20046;-83
2023/10/31 12:57:54;;;;;;;1.30;0.10;;;;;;;;;;5136712;27;20475;-82
2023/10/31 13:00:24;;;;;;;1.02;0.00;;;;;;;;;;5160041;27;20050;-82
2023/10/31 13:02:59;;;;;;;1.42;0.08;;;;;;;;;;5158062;27;20394;-82
2023/10/31 13:05:26;;;;;;;2.30;0.08;;;;;;;;;;5141274;27;20046;-82
2023/10/31 13:07:53;;;;;;;0.15;0.00;;;;;;;;;;5140321;27;20046;-81
2023/10/31 13:10:20;;;;;;;1.05;0.05;;;;;;;;;;5177321;27;20077;-82
2023/10/31 13:12:49;;;;;;;1.25;0.00;;;;;;;;;;5161818;27;20054;-82
2023/10/31 13:15:15;;;;;;;0.50;0.00;;;;;;;;;;5161314;27;20063;-82
2023/10/31 13:17:43;;;;;;;0.82;0.00;;;;;;;;;;5180061;27;20054;-82
2023/10/31 13:20:10;;;;;;;0.80;0.00;;;;;;;;;;5161590;27;20057;-82
2023/10/31 13:22:40;;;;;;;0.73;0.00;;;;;;;;;;5162316;27;20474;-80
2023/10/31 13:25:07;;;;;;;0.55;0.10;;;;;;;;;;5144070;27;20043;-81
2023/10/31 13:27:37;;;;;;;0.50;0.00;;;;;;;;;;5126935;27;20050;-81
2023/10/31 13:30:03;;;;;;;0.32;0.00;;;;;;;;;;5161114;27;20075;-81
2023/10/31 13:32:29;;;;;;;0.77;0.00;;;;;;;;;;5179684;27;20545;-81
2023/10/31 13:34:55;;;;;;;1.08;0.00;;;;;;;;;;5161504;27;20045;-81
2023/10/31 13:37:22;;;;;;;0.00;0.00;;;;;;;;;;5161221;27;20106;-81
2023/10/31 13:39:48;;;;;;;0.40;0.00;;;;;;;;;;5161025;27;20046;-81
2023/10/31 13:42:14;;;;;;;0.38;0.00;;;;;;;;;;5179137;27;20486;-81
2023/10/31 13:44:43;;;;;;;0.73;0.10;;;;;;;;;;5160922;27;20128;-82
2023/10/31 13:47:09;;;;;;;0.90;0.00;;;;;;;;;;5179710;27;20180;-82
2023/10/31 13:49:36;;;;;;;1.88;0.10;;;;;;;;;;5160866;27;20093;-87
2023/10/31 13:52:03;;;;;;;0.55;0.10;;;;;;;;;;5143781;27;20042;-84
2023/10/31 13:54:29;;;;;;;1.20;0.10;;;;;;;;;;5179316;27;20073;-84
2023/10/31 13:56:56;;;;;;;2.35;0.10;;;;;;;;;;5126647;27;20054;-85
2023/10/31 13:59:22;;;;;;;0.60;0.10;;;;;;;;;;5143633;27;20111;-86
2023/10/31 14:01:48;;;;;;;1.60;0.10;;;;;;;;;;5157312;27;20061;-87
2023/10/31 14:04:14;;;;;;;0.88;0.10;;;;;;;;;;5158193;27;20061;-87
2023/10/31 14:06:41;;;;;;;1.90;0.10;;;;;;;;;;5157862;27;20095;-86
2023/10/31 14:09:09;;;;;;;1.00;0.10;;;;;;;;;;5157373;27;20055;-84
2023/10/31 14:11:35;;;;;;;0.70;0.10;;;;;;;;;;5139918;27;20042;-86
2023/10/31 14:14:06;;;;;;;2.25;0.13;;;;;;;;;;5157051;27;20126;-85
2023/10/31 14:16:38;;;;;;;1.38;0.10;;;;;;;;;;5157984;27;20146;-84
2023/10/31 14:19:06;;;;;;;1.52;0.10;;;;;;;;;;5157262;27;20121;-84
2023/10/31 14:21:32;;;;;;;1.15;0.10;;;;;;;;;;5139351;27;20095;-84
2023/10/31 14:23:59;;;;;;;1.85;0.10;;;;;;;;;;5157479;27;20121;-83
2023/10/31 14:26:25;;;;;;;1.17;0.03;;;;;;;;;;5156654;27;20079;-83
2023/10/31 14:28:51;;;;;;;1.15;0.10;;;;;;;;;;5157766;27;20046;-83
2023/10/31 14:31:17;;;;;;;2.45;0.15;;;;;;;;;;5139036;27;20054;-83
2023/10/31 14:33:44;;;;;;;1.40;0.03;;;;;;;;;;5139355;27;20042;-83
2023/10/31 14:36:12;;;;;;;2.28;0.05;;;;;;;;;;5140228;27;20141;-82
2023/10/31 14:38:38;;;;;;;0.95;0.10;;;;;;;;;;5156270;27;20125;-82